Time;durP1;ratioP1;P1;durP2;ratioP2;P2;SDS_P1;SDS_P2;PMS_P1;PMS_P2;Temp;Humidity;BMP_temperature;BMP_pressure;BME280_temperature;BME280_humidity;BME280_pressure;Samples;Min_cycle;Max_cycle;Signal;HPM_P1;HPM_P2
2022/02/09 00:10:05;;;;;;;22.00;12.35;;;;;;;;;;5035104;28;20035;-71
2022/02/09 00:39:46;;;;;;;8.07;4.53;;;;;;;;;;5034132;28;20099;-71
2022/02/09 01:39:47;;;;;;;46.00;25.85;;;;;;;;;;5001429;28;20499;-72
2022/02/09 01:43:26;;;;;;;20.48;12.35;;;;;;;;;;5013281;28;20436;-74
2022/02/09 01:56:20;;;;;;;13.68;8.00;;;;;;;;;;5012745;28;20557;-76
2022/02/09 01:58:47;;;;;;;9.90;6.55;;;;;;;;;;5012678;28;20028;-75
2022/02/09 02:01:13;;;;;;;18.60;12.18;;;;;;;;;;5012885;28;20474;-75
2022/02/09 02:03:39;;;;;;;15.68;10.05;;;;;;;;;;5010666;28;20116;-73
2022/02/09 02:06:05;;;;;;;7.63;5.30;;;;;;;;;;5010311;28;20034;-73
2022/02/09 02:08:32;;;;;;;17.65;10.95;;;;;;;;;;5012492;28;20478;-74
2022/02/09 02:13:40;;;;;;;17.85;10.32;;;;;;;;;;5012350;28;20117;-74
2022/02/09 02:16:20;;;;;;;14.07;7.35;;;;;;;;;;5012243;28;20026;-72
2022/02/09 02:18:52;;;;;;;5.50;3.78;;;;;;;;;;5010649;28;20495;-73
2022/02/09 02:21:29;;;;;;;8.02;5.90;;;;;;;;;;5012557;28;20373;-73
2022/02/09 02:32:22;;;;;;;13.85;8.50;;;;;;;;;;5012159;28;20065;-73
2022/02/09 02:45:18;;;;;;;27.90;15.05;;;;;;;;;;5011405;28;20128;-74
2022/02/09 02:56:43;;;;;;;15.82;9.63;;;;;;;;;;5011735;28;20400;-72
2022/02/09 03:17:20;;;;;;;11.55;7.63;;;;;;;;;;5011631;28;20570;-73
2022/02/09 03:19:56;;;;;;;;;;;;;;;;;;5011814;28;20125;-72
2022/02/09 03:44:03;;;;;;;12.25;7.18;;;;;;;;;;5014619;28;20033;-73
2022/02/09 03:46:49;;;;;;;8.65;5.13;;;;;;;;;;5015089;28;20165;-72
2022/02/09 03:52:22;;;;;;;11.82;7.53;;;;;;;;;;5015302;28;20030;-73
2022/02/09 03:54:53;;;;;;;17.15;9.75;;;;;;;;;;5014213;28;20037;-74
2022/02/09 03:57:23;;;;;;;16.17;10.32;;;;;;;;;;5014998;28;20037;-74
2022/02/09 03:59:49;;;;;;;15.43;9.13;;;;;;;;;;5015195;28;20495;-74
2022/02/09 04:02:16;;;;;;;11.88;7.75;;;;;;;;;;5014850;28;20032;-74
2022/02/09 04:04:42;;;;;;;14.48;8.52;;;;;;;;;;5012970;28;20026;-72
2022/02/09 04:07:11;;;;;;;8.60;5.88;;;;;;;;;;5014823;28;20022;-72
2022/02/09 04:09:40;;;;;;;10.05;6.63;;;;;;;;;;5014592;28;20054;-72
2022/02/09 04:12:17;;;;;;;12.90;7.70;;;;;;;;;;5014987;28;20037;-72
2022/02/09 04:14:52;;;;;;;14.07;9.43;;;;;;;;;;5014101;28;20026;-72
2022/02/09 04:37:01;;;;;;;9.00;6.00;;;;;;;;;;5014272;28;20079;-73
2022/02/09 04:39:45;;;;;;;;;;;;;;;;;;5012152;28;20067;-72
2022/02/09 04:45:21;;;;;;;5.32;2.90;;;;;;;;;;5013698;28;20484;-73
2022/02/09 04:50:18;;;;;;;5.40;3.40;;;;;;;;;;5014095;28;20116;-72
2022/02/09 04:53:00;;;;;;;9.35;5.85;;;;;;;;;;5013536;28;20021;-72
2022/02/09 04:58:30;;;;;;;6.53;5.00;;;;;;;;;;5013881;28;20100;-73
2022/02/09 05:01:13;;;;;;;5.05;3.67;;;;;;;;;;5013999;28;20369;-73
2022/02/09 05:28:18;;;;;;;3.20;2.90;;;;;;;;;;5013325;28;20044;-73
2022/02/09 05:30:46;;;;;;;4.07;3.05;;;;;;;;;;5013076;28;20049;-73
2022/02/09 05:33:12;;;;;;;7.25;3.90;;;;;;;;;;5012589;28;20128;-73
2022/02/09 05:35:42;;;;;;;5.68;3.22;;;;;;;;;;5013412;28;20037;-73
2022/02/09 05:38:08;;;;;;;8.40;5.13;;;;;;;;;;5013694;28;20024;-73
2022/02/09 05:40:34;;;;;;;8.32;5.20;;;;;;;;;;5011713;28;20021;-73
2022/02/09 05:43:00;;;;;;;12.40;5.93;;;;;;;;;;5012619;28;20504;-73
2022/02/09 05:45:35;;;;;;;6.45;4.30;;;;;;;;;;5013626;28;20018;-73
2022/02/09 05:59:02;;;;;;;6.43;3.90;;;;;;;;;;5012686;28;20096;-74
2022/02/09 06:01:28;;;;;;;5.05;3.55;;;;;;;;;;5012771;28;20140;-75
2022/02/09 06:03:54;;;;;;;7.15;4.10;;;;;;;;;;5012493;28;20060;-74
2022/02/09 06:06:20;;;;;;;9.13;3.47;;;;;;;;;;5012887;28;20340;-74
2022/02/09 06:08:46;;;;;;;2.55;2.30;;;;;;;;;;5012573;28;20040;-74
2022/02/09 06:13:54;;;;;;;5.13;3.10;;;;;;;;;;5012125;28;20088;-72
2022/02/09 06:21:50;;;;;;;8.20;4.65;;;;;;;;;;4992790;28;20072;-73
2022/02/09 06:24:15;;;;;;;4.65;3.03;;;;;;;;;;4991929;28;20057;-73
2022/02/09 06:26:41;;;;;;;8.80;5.43;;;;;;;;;;4992731;28;20033;-73
2022/02/09 06:29:08;;;;;;;8.98;4.68;;;;;;;;;;4992045;28;20444;-73
2022/02/09 06:31:36;;;;;;;6.20;4.00;;;;;;;;;;4992202;28;20076;-73
2022/02/09 06:34:02;;;;;;;2.80;2.00;;;;;;;;;;4992022;28;20113;-72
2022/02/09 06:36:28;;;;;;;6.25;3.90;;;;;;;;;;4991969;28;20030;-72
2022/02/09 06:38:55;;;;;;;4.90;3.05;;;;;;;;;;4992089;28;20029;-72
2022/02/09 06:41:21;;;;;;;7.72;5.13;;;;;;;;;;4992073;28;20416;-73
2022/02/09 06:43:47;;;;;;;4.72;3.55;;;;;;;;;;4990363;28;20033;-75
2022/02/09 06:46:14;;;;;;;7.22;3.92;;;;;;;;;;4990953;28;20065;-74
2022/02/09 06:48:40;;;;;;;4.45;2.47;;;;;;;;;;4992278;28;20030;-73
2022/02/09 06:51:11;;;;;;;5.60;2.83;;;;;;;;;;5001465;28;20026;-74
2022/02/09 06:54:28;;;;;;;2.05;1.55;;;;;;;;;;5011234;28;20075;-73
2022/02/09 06:56:38;;;;;;;5.75;3.30;;;;;;;;;;5004074;28;20132;-73
2022/02/09 06:59:20;;;;;;;6.32;3.95;;;;;;;;;;5010464;28;20013;-73
2022/02/09 07:01:46;;;;;;;4.47;2.83;;;;;;;;;;5010418;28;20130;-73
2022/02/09 07:04:12;;;;;;;1.55;1.38;;;;;;;;;;5010477;28;20104;-72
2022/02/09 07:06:38;;;;;;;2.33;2.13;;;;;;;;;;5012001;28;20124;-75
2022/02/09 07:09:05;;;;;;;1.63;1.40;;;;;;;;;;5011176;28;20038;-73
2022/02/09 07:11:31;;;;;;;5.90;1.70;;;;;;;;;;5011681;28;20029;-74
2022/02/09 07:13:57;;;;;;;2.40;1.35;;;;;;;;;;5010835;28;20369;-74
2022/02/09 07:16:24;;;;;;;2.38;2.00;;;;;;;;;;5008648;28;20041;-73
2022/02/09 07:18:51;;;;;;;2.78;2.13;;;;;;;;;;5007284;28;20026;-73
2022/02/09 07:21:25;;;;;;;5.78;2.45;;;;;;;;;;4991228;28;20026;-72
2022/02/09 07:23:53;;;;;;;2.38;2.13;;;;;;;;;;4990664;28;20116;-75
2022/02/09 07:26:28;;;;;;;4.55;2.80;;;;;;;;;;4989513;28;20045;-74
2022/02/09 07:28:56;;;;;;;5.05;2.75;;;;;;;;;;4991460;28;20034;-74
2022/02/09 07:31:22;;;;;;;4.75;2.72;;;;;;;;;;5027510;23;20053;-70
2022/02/09 07:33:48;;;;;;;4.72;3.22;;;;;;;;;;5008906;28;20022;-71
2022/02/09 07:36:16;;;;;;;4.43;2.22;;;;;;;;;;5009933;28;20029;-72
2022/02/09 07:38:43;;;;;;;2.97;1.70;;;;;;;;;;5011686;28;20018;-72
2022/02/09 07:41:10;;;;;;;3.92;2.70;;;;;;;;;;5011415;28;20026;-72
2022/02/09 07:54:00;;;;;;;2.22;1.77;;;;;;;;;;5010409;28;20499;-71
2022/02/09 07:56:26;;;;;;;5.65;2.67;;;;;;;;;;5009661;28;20427;-73
2022/02/09 07:58:52;;;;;;;7.53;2.65;;;;;;;;;;5010538;28;20041;-72
2022/02/09 08:01:18;;;;;;;4.43;2.38;;;;;;;;;;5009582;28;20037;-73
2022/02/09 08:03:44;;;;;;;2.70;1.60;;;;;;;;;;5008930;28;20491;-70
2022/02/09 08:06:11;;;;;;;4.18;2.67;;;;;;;;;;5008083;28;20029;-71
2022/02/09 08:08:39;;;;;;;3.00;2.10;;;;;;;;;;5009551;28;20022;-71
2022/02/09 08:11:17;;;;;;;2.20;2.00;;;;;;;;;;5009548;28;20024;-71
2022/02/09 08:26:04;;;;;;;5.20;2.35;;;;;;;;;;5013594;28;20116;-72
2022/02/09 08:27:46;;;;;;;3.70;2.10;;;;;;;;;;5014237;28;20053;-69
2022/02/09 08:32:53;;;;;;;19.15;11.88;;;;;;;;;;5014210;28;20030;-70
2022/02/09 08:35:19;;;;;;;10.55;6.03;;;;;;;;;;5013871;28;20034;-72
2022/02/09 08:37:45;;;;;;;4.80;3.00;;;;;;;;;;5014400;28;20018;-72
2022/02/09 08:40:14;;;;;;;10.25;5.97;;;;;;;;;;5012565;28;20049;-72
2022/02/09 08:42:41;;;;;;;7.85;5.38;;;;;;;;;;5014191;28;20026;-71
2022/02/09 08:45:07;;;;;;;4.50;3.40;;;;;;;;;;5013603;28;20022;-72
2022/02/09 08:47:33;;;;;;;9.57;6.10;;;;;;;;;;5012700;28;20087;-72
2022/02/09 08:50:00;;;;;;;6.72;3.47;;;;;;;;;;5012443;28;20068;-70
2022/02/09 08:52:26;;;;;;;4.60;3.30;;;;;;;;;;5012237;28;20109;-72
2022/02/09 08:54:52;;;;;;;5.35;4.00;;;;;;;;;;5013122;28;20664;-72
2022/02/09 08:57:20;;;;;;;11.23;7.45;;;;;;;;;;5013644;28;20492;-71
2022/02/09 08:59:48;;;;;;;2.47;2.25;;;;;;;;;;5013612;28;20500;-71
2022/02/09 09:02:18;;;;;;;21.92;12.25;;;;;;;;;;5013601;28;20169;-70
2022/02/09 09:04:50;;;;;;;14.07;4.28;;;;;;;;;;5013096;28;20030;-71
2022/02/09 09:07:22;;;;;;;13.30;8.18;;;;;;;;;;5013573;28;20106;-72
2022/02/09 10:05:30;;;;;;;18.60;10.05;;;;;;;;;;5013091;28;20061;-71
2022/02/09 10:32:46;;;;;;;3.17;2.53;;;;;;;;;;5012355;28;20581;-71
2022/02/09 10:35:16;;;;;;;12.38;6.47;;;;;;;;;;5011150;28;20057;-71
2022/02/09 10:37:42;;;;;;;6.63;4.10;;;;;;;;;;5010933;28;20025;-71
2022/02/09 10:40:13;;;;;;;6.43;3.22;;;;;;;;;;5012174;28;20088;-71
2022/02/09 10:42:47;;;;;;;19.35;10.45;;;;;;;;;;5012260;28;20106;-69
2022/02/09 10:45:35;;;;;;;11.48;5.53;;;;;;;;;;5013036;28;20033;-71
2022/02/09 10:48:02;;;;;;;15.27;8.30;;;;;;;;;;5013017;28;20026;-72
2022/02/09 10:50:34;;;;;;;8.98;4.38;;;;;;;;;;5012288;28;20472;-72
2022/02/09 10:53:02;;;;;;;3.45;2.47;;;;;;;;;;5012035;28;20026;-70
2022/02/09 10:55:37;;;;;;;9.93;4.28;;;;;;;;;;5012455;28;20030;-72
2022/02/09 10:58:04;;;;;;;17.50;4.00;;;;;;;;;;5012103;28;20022;-71
2022/02/09 11:00:30;;;;;;;4.55;2.50;;;;;;;;;;5012037;28;20022;-71
2022/02/09 11:02:56;;;;;;;4.45;2.58;;;;;;;;;;5011584;28;20025;-71
2022/02/09 11:05:22;;;;;;;20.92;10.70;;;;;;;;;;5011782;28;20046;-71
2022/02/09 11:07:49;;;;;;;7.13;3.50;;;;;;;;;;5011888;28;20025;-71
2022/02/09 11:10:16;;;;;;;13.38;4.65;;;;;;;;;;5011697;28;20028;-71
2022/02/09 11:12:45;;;;;;;11.95;6.20;;;;;;;;;;5010217;28;20037;-71
2022/02/09 11:15:14;;;;;;;28.30;13.10;;;;;;;;;;5010673;28;20476;-71
2022/02/09 11:17:46;;;;;;;8.18;4.28;;;;;;;;;;5011731;28;20139;-71
2022/02/09 11:20:12;;;;;;;23.42;11.77;;;;;;;;;;5011557;28;20018;-71
2022/02/09 11:22:45;;;;;;;11.95;6.00;;;;;;;;;;5011395;28;20392;-69
2022/02/09 11:25:18;;;;;;;7.50;3.95;;;;;;;;;;5011625;28;20049;-71
2022/02/09 11:27:57;;;;;;;17.77;9.00;;;;;;;;;;5011489;28;20053;-71
2022/02/09 11:30:39;;;;;;;;;;;;;;;;;;;;;
2022/02/09 11:35:41;;;;;;;14.27;7.85;;;;;;;;;;5011763;28;20030;-71
2022/02/09 11:57:10;;;;;;;6.78;4.10;;;;;;;;;;5015117;28;20073;-71
2022/02/09 12:10:48;;;;;;;3.75;2.65;;;;;;;;;;5014922;28;20045;-71
2022/02/09 12:13:41;;;;;;;10.13;4.32;;;;;;;;;;5014041;28;20345;-69
2022/02/09 12:18:59;;;;;;;6.13;4.00;;;;;;;;;;5014833;28;20116;-71
2022/02/09 12:21:38;;;;;;;9.57;3.92;;;;;;;;;;5014413;28;20033;-71
2022/02/09 12:24:24;;;;;;;7.68;4.13;;;;;;;;;;5013924;28;20543;-71
2022/02/09 12:26:59;;;;;;;9.38;5.57;;;;;;;;;;5014810;28;20109;-70
2022/02/09 12:29:30;;;;;;;11.15;5.88;;;;;;;;;;5013969;28;20026;-70
2022/02/09 12:31:56;;;;;;;9.23;4.97;;;;;;;;;;5014477;28;20052;-71
2022/02/09 12:34:23;;;;;;;7.70;4.75;;;;;;;;;;5013816;28;20503;-70
2022/02/09 12:36:49;;;;;;;8.85;4.90;;;;;;;;;;5013034;28;20057;-70
2022/02/09 12:39:16;;;;;;;10.95;5.57;;;;;;;;;;5014441;28;20053;-70
2022/02/09 12:41:43;;;;;;;8.88;3.88;;;;;;;;;;5013254;28;20025;-70
2022/02/09 12:44:09;;;;;;;8.05;4.18;;;;;;;;;;5013636;28;20080;-71
2022/02/09 12:46:37;;;;;;;10.77;5.55;;;;;;;;;;5013189;28;20113;-70
2022/02/09 12:49:07;;;;;;;8.25;4.80;;;;;;;;;;5012567;28;20034;-70
2022/02/09 12:51:33;;;;;;;3.70;2.35;;;;;;;;;;5014049;28;20029;-70
2022/02/09 12:54:00;;;;;;;3.53;2.67;;;;;;;;;;5012385;28;20026;-70
2022/02/09 12:56:31;;;;;;;4.82;3.40;;;;;;;;;;5014245;28;20096;-70
2022/02/09 12:59:01;;;;;;;16.38;8.23;;;;;;;;;;5014420;28;20026;-71
2022/02/09 13:01:27;;;;;;;19.00;8.73;;;;;;;;;;5012995;28;20030;-70
2022/02/09 13:03:53;;;;;;;5.43;2.15;;;;;;;;;;5013585;28;20025;-70
2022/02/09 13:06:19;;;;;;;9.05;5.70;;;;;;;;;;5014263;28;20468;-71
2022/02/09 13:08:51;;;;;;;9.07;4.65;;;;;;;;;;5014075;28;20026;-71
2022/02/09 13:11:30;;;;;;;15.75;8.43;;;;;;;;;;5013890;28;20030;-70
2022/02/09 13:14:11;;;;;;;17.30;8.00;;;;;;;;;;5011462;28;20044;-71
2022/02/09 14:11:39;;;;;;;9.07;3.97;;;;;;;;;;4992541;28;20384;-69
2022/02/09 14:57:07;;;;;;;7.57;4.15;;;;;;;;;;4989831;28;20448;-70
2022/02/09 15:02:10;;;;;;;7.07;3.67;;;;;;;;;;4992138;28;20061;-69
2022/02/09 15:10:19;;;;;;;7.05;4.50;;;;;;;;;;4991668;28;20069;-69
2022/02/09 15:13:23;;;;;;;4.00;2.80;;;;;;;;;;4990374;28;20026;-68
2022/02/09 15:15:51;;;;;;;6.78;4.07;;;;;;;;;;4992678;28;20046;-70
2022/02/09 15:21:17;;;;;;;4.68;3.38;;;;;;;;;;4992209;28;20026;-67
2022/02/09 15:23:44;;;;;;;6.05;3.88;;;;;;;;;;4991987;28;20325;-69
2022/02/09 15:26:10;;;;;;;5.07;3.38;;;;;;;;;;4996056;28;20053;-69
2022/02/09 15:28:37;;;;;;;9.38;4.63;;;;;;;;;;5010915;28;20058;-67
2022/02/09 15:31:15;;;;;;;10.00;5.43;;;;;;;;;;4995738;28;20564;-69
2022/02/09 15:33:46;;;;;;;6.00;3.65;;;;;;;;;;4995529;28;20034;-69
2022/02/09 15:36:15;;;;;;;4.70;2.83;;;;;;;;;;4995985;28;20053;-69
2022/02/09 15:38:46;;;;;;;5.43;2.90;;;;;;;;;;4995853;28;20034;-69
2022/02/09 15:41:26;;;;;;;10.68;5.45;;;;;;;;;;4995909;28;20023;-69
2022/02/09 15:57:44;;;;;;;6.13;3.55;;;;;;;;;;4994757;28;20037;-68
2022/02/09 16:10:59;;;;;;;5.00;3.45;;;;;;;;;;4995548;28;20421;-70
2022/02/09 16:22:00;;;;;;;4.97;3.10;;;;;;;;;;4995005;28;20038;-67
2022/02/09 16:24:43;;;;;;;3.70;2.55;;;;;;;;;;4994314;28;20038;-71
2022/02/09 16:46:13;;;;;;;5.78;3.40;;;;;;;;;;4994732;28;20049;-67
2022/02/09 16:48:45;;;;;;;6.18;3.65;;;;;;;;;;4994870;28;20399;-69
2022/02/09 16:51:22;;;;;;;4.63;3.17;;;;;;;;;;4994812;28;20023;-69
2022/02/09 16:56:50;;;;;;;11.45;4.78;;;;;;;;;;4974859;28;20042;-68
2022/02/09 17:21:14;;;;;;;20.42;8.05;;;;;;;;;;4974958;28;20397;-67
2022/02/09 17:23:40;;;;;;;31.40;12.20;;;;;;;;;;4973861;28;20058;-68
2022/02/09 17:26:06;;;;;;;6.75;3.67;;;;;;;;;;5005954;28;20497;-72
2022/02/09 17:28:40;;;;;;;15.77;6.65;;;;;;;;;;4974893;28;20026;-69
2022/02/09 17:31:21;;;;;;;7.15;4.00;;;;;;;;;;4974687;28;20601;-71
2022/02/09 17:36:20;;;;;;;15.70;7.65;;;;;;;;;;4974426;28;20039;-70
2022/02/09 17:57:45;;;;;;;31.38;12.77;;;;;;;;;;4990826;28;20066;-67
2022/02/09 18:00:15;;;;;;;6.47;3.53;;;;;;;;;;4993436;28;20019;-69
2022/02/09 18:02:42;;;;;;;15.80;6.35;;;;;;;;;;4990531;28;20082;-69
2022/02/09 18:05:16;;;;;;;13.88;6.55;;;;;;;;;;4988532;28;20030;-71
2022/02/09 18:07:45;;;;;;;8.88;4.80;;;;;;;;;;4990921;28;20034;-70
2022/02/09 18:10:28;;;;;;;42.85;20.80;;;;;;;;;;4988403;28;20054;-71
2022/02/09 18:13:25;;;;;;;38.58;18.00;;;;;;;;;;4986249;28;20481;-71
2022/02/09 18:31:55;;;;;;;32.75;16.55;;;;;;;;;;4992072;28;20042;-70
2022/02/09 18:34:47;;;;;;;4.53;3.45;;;;;;;;;;5007148;28;20033;-73
2022/02/09 19:03:32;;;;;;;;;;;;;;;;;;;;;
2022/02/09 19:05:55;;;;;;;53.65;25.35;;;;;;;;;;4992390;28;20054;-68
2022/02/09 19:19:26;;;;;;;30.80;14.85;;;;;;;;;;4973210;28;20034;-71
2022/02/09 19:41:09;;;;;;;32.35;15.55;;;;;;;;;;5012309;28;20092;-75
2022/02/09 19:49:13;;;;;;;51.33;24.75;;;;;;;;;;5013639;28;20041;-75
2022/02/09 19:51:47;;;;;;;24.25;13.05;;;;;;;;;;5013944;28;20030;-76
2022/02/09 19:56:52;;;;;;;36.08;16.88;;;;;;;;;;5012707;28;20396;-75
2022/02/09 19:59:21;;;;;;;28.90;13.15;;;;;;;;;;5012471;28;20029;-75
2022/02/09 20:01:48;;;;;;;24.30;12.07;;;;;;;;;;5012338;28;20072;-75
2022/02/09 20:04:15;;;;;;;34.47;16.83;;;;;;;;;;5012861;28;20022;-76
2022/02/09 20:06:43;;;;;;;16.75;8.35;;;;;;;;;;5013704;28;20083;-77
2022/02/09 20:09:12;;;;;;;20.20;9.70;;;;;;;;;;5012789;28;20026;-76
2022/02/09 20:11:41;;;;;;;38.83;18.77;;;;;;;;;;5014801;28;20034;-76
2022/02/09 20:17:12;;;;;;;6.43;4.18;;;;;;;;;;5016065;28;20034;-75
2022/02/09 20:19:47;;;;;;;7.45;3.67;;;;;;;;;;5014544;28;20038;-75
2022/02/09 20:24:42;;;;;;;38.90;18.45;;;;;;;;;;5031470;28;20068;-75
2022/02/09 20:30:42;;;;;;;6.18;3.55;;;;;;;;;;5012946;28;20089;-73
2022/02/09 20:33:22;;;;;;;6.95;4.05;;;;;;;;;;5015501;28;20029;-75
2022/02/09 20:35:52;;;;;;;20.65;9.82;;;;;;;;;;5014460;28;20030;-75
2022/02/09 20:38:24;;;;;;;27.08;12.98;;;;;;;;;;5045244;23;20129;-72
2022/02/09 20:40:54;;;;;;;24.40;11.20;;;;;;;;;;4994562;28;20738;-69
2022/02/09 20:43:23;;;;;;;33.00;15.55;;;;;;;;;;5008772;28;20042;-70
2022/02/09 20:45:54;;;;;;;25.08;12.93;;;;;;;;;;5009629;28;20742;-69
2022/02/09 20:48:26;;;;;;;4.28;3.08;;;;;;;;;;5009584;28;20404;-69
2022/02/09 20:50:53;;;;;;;16.63;7.63;;;;;;;;;;4994369;28;20102;-69
2022/02/09 20:53:19;;;;;;;5.85;3.17;;;;;;;;;;4994011;28;20034;-71
2022/02/09 20:55:46;;;;;;;9.73;5.57;;;;;;;;;;4994462;28;20022;-71
2022/02/09 20:58:12;;;;;;;18.35;8.45;;;;;;;;;;4994356;28;20098;-72
2022/02/09 21:00:48;;;;;;;12.15;6.32;;;;;;;;;;4993328;28;20061;-72
2022/02/09 21:05:48;;;;;;;10.10;5.25;;;;;;;;;;4994186;28;20058;-72
2022/02/09 21:11:10;;;;;;;;;;;;;;;;;;4995162;28;20113;-73
2022/02/09 21:21:26;;;;;;;7.15;3.78;;;;;;;;;;4993569;28;20030;-73
2022/02/09 21:45:55;;;;;;;23.20;10.98;;;;;;;;;;4994004;28;20041;-69
2022/02/09 21:54:54;;;;;;;10.27;5.00;;;;;;;;;;4992990;28;20033;-70
2022/02/09 21:56:57;;;;;;;9.90;5.13;;;;;;;;;;4988363;28;20120;-70
2022/02/09 22:26:48;;;;;;;6.22;3.38;;;;;;;;;;4973832;28;20042;-72
2022/02/09 22:50:57;;;;;;;5.47;3.58;;;;;;;;;;4973324;28;20394;-70
2022/02/09 22:56:09;;;;;;;15.18;7.25;;;;;;;;;;4973156;28;20061;-71
2022/02/09 22:58:35;;;;;;;10.88;5.50;;;;;;;;;;4973224;28;20512;-70
2022/02/09 23:03:37;;;;;;;13.48;7.13;;;;;;;;;;4972491;28;20023;-71
2022/02/09 23:06:21;;;;;;;;;;;;;;;;;;;;;
2022/02/09 23:11:27;;;;;;;10.48;4.93;;;;;;;;;;4973170;28;20030;-71
2022/02/09 23:14:02;;;;;;;3.70;2.88;;;;;;;;;;4986794;28;20114;-71
2022/02/09 23:16:48;;;;;;;9.50;5.65;;;;;;;;;;4992208;28;20050;-71
2022/02/09 23:22:52;;;;;;;2.95;2.10;;;;;;;;;;4983712;28;20535;-71
2022/02/09 23:58:25;;;;;;;4.50;2.38;;;;;;;;;;4976681;28;20086;-71
